Boston, Texas
Current Conditions -  °F | °C
As of 5:53 AM on Friday 19 Dec 2014 (Local Time) from KTXK Reporting Station
Haze Haze  
Wind Chill:   Ceiling: 300
Heat Index:   Visibility: 3mi
Dew Point:   Wind: 8mph
Humidity: 97%   Direction: 40°NE
Pressure: 30.19"   Gusts: NA
Location:  33.4799°N, 94.4582°W
Report Text: KTXK 191153Z 04007KT 3SM BR OVC003 06/06 A3019 RMK AO2 SLP223 T00610056 10067 20061 53010
Loading
Personal Weather Stations






























Interactive Weather Map New forecast layout! Learn more

10-Day Weather Forecast

Advertisements
Track Severe Weather on mobile